createdAt,value
2023-05-01T00:00:23.273Z,73.71
2023-05-01T00:02:49.589Z,72.27
2023-05-01T00:05:15.901Z,71.76
2023-05-01T00:07:42.300Z,71.17
2023-05-01T00:10:08.521Z,70.35
2023-05-01T00:12:34.755Z,70.69
2023-05-01T00:15:00.992Z,69.48
2023-05-01T00:17:27.259Z,71.00
2023-05-01T00:19:53.625Z,71.48
2023-05-01T00:22:19.925Z,71.35
2023-05-01T00:24:46.161Z,68.44
2023-05-01T00:27:12.420Z,68.18
2023-05-01T00:29:38.669Z,68.37
2023-05-01T00:32:04.952Z,69.57
2023-05-01T00:34:31.202Z,67.81
2023-05-01T00:36:57.456Z,66.77
2023-05-01T00:39:23.708Z,67.55
2023-05-01T00:41:49.972Z,67.89
2023-05-01T00:44:16.276Z,68.33
2023-05-01T00:46:42.522Z,67.35
2023-05-01T00:49:08.769Z,69.55
2023-05-01T00:51:35.006Z,69.00
2023-05-01T00:54:01.227Z,69.53
2023-05-01T00:56:27.477Z,69.93
2023-05-01T00:58:53.714Z,68.79
2023-05-01T01:01:20.056Z,67.76
2023-05-01T01:03:46.369Z,69.16
2023-05-01T01:06:12.687Z,70.17
2023-05-01T01:08:39.000Z,70.82
2023-05-01T01:11:05.254Z,71.64
2023-05-01T01:13:31.539Z,70.22
2023-05-01T01:15:57.798Z,68.08
2023-05-01T01:18:24.073Z,68.39
2023-05-01T01:20:50.353Z,69.97
2023-05-01T01:23:16.649Z,69.98
2023-05-01T01:25:42.983Z,71.58
2023-05-01T01:28:09.290Z,71.59
2023-05-01T01:30:35.529Z,69.65
2023-05-01T01:33:01.823Z,68.86
2023-05-01T01:35:28.124Z,67.55
2023-05-01T01:37:54.476Z,69.87
2023-05-01T01:40:20.778Z,67.67
2023-05-01T01:42:47.023Z,67.87
2023-05-01T01:45:13.292Z,69.07
2023-05-01T01:47:39.522Z,71.70
2023-05-01T01:50:05.825Z,69.06
2023-05-01T01:52:32.101Z,71.22
2023-05-01T01:54:58.346Z,71.44
2023-05-01T01:57:24.630Z,71.60
2023-05-01T01:59:50.881Z,72.35
2023-05-01T02:02:17.172Z,72.59
2023-05-01T02:04:43.392Z,71.43
2023-05-01T02:07:09.664Z,72.59
2023-05-01T02:09:35.896Z,73.75
2023-05-01T02:12:02.142Z,72.28
2023-05-01T02:14:28.387Z,72.52
2023-05-01T02:16:54.665Z,71.37
2023-05-01T02:19:20.927Z,70.45
2023-05-01T02:21:47.157Z,70.98
2023-05-01T02:24:13.388Z,71.82
2023-05-01T02:26:39.633Z,69.88
2023-05-01T02:29:05.945Z,67.50
2023-05-01T02:31:32.269Z,66.28
2023-05-01T02:33:58.539Z,69.03
2023-05-01T02:36:24.791Z,69.52
2023-05-01T02:38:51.058Z,68.20
2023-05-01T02:41:17.341Z,69.25
2023-05-01T02:43:43.584Z,66.33
2023-05-01T02:46:09.926Z,67.03
2023-05-01T02:48:36.207Z,66.83
2023-05-01T02:51:02.458Z,66.33
2023-05-01T02:53:28.772Z,66.34
2023-05-01T02:55:55.123Z,65.99
2023-05-01T02:58:21.427Z,65.52
2023-05-01T03:00:47.703Z,66.01
2023-05-01T03:03:14.043Z,65.53
2023-05-01T03:05:40.375Z,65.23
2023-05-01T03:08:06.671Z,64.07
2023-05-01T03:10:32.905Z,64.13
2023-05-01T03:12:59.154Z,65.14
2023-05-01T03:15:25.380Z,65.56
2023-05-01T03:17:51.646Z,66.11
2023-05-01T03:20:17.961Z,64.55
2023-05-01T03:22:44.234Z,64.77
2023-05-01T03:25:10.532Z,62.64
2023-05-01T03:27:36.839Z,62.73
2023-05-01T03:30:03.099Z,63.18
2023-05-01T03:32:29.558Z,63.99
2023-05-01T03:34:55.933Z,62.95
2023-05-01T03:37:22.247Z,62.38
2023-05-01T03:39:48.476Z,65.20
2023-05-01T03:42:14.786Z,63.30
2023-05-01T03:44:41.051Z,64.50
2023-05-01T03:47:07.332Z,63.80
2023-05-01T03:49:33.643Z,64.65
2023-05-01T03:51:59.911Z,62.44
2023-05-01T03:54:26.140Z,63.17
2023-05-01T03:56:52.420Z,63.05
2023-05-01T03:59:18.672Z,65.05
2023-05-01T04:01:44.976Z,65.36
2023-05-01T04:04:11.337Z,62.77
2023-05-01T04:06:37.823Z,67.33
2023-05-01T04:09:04.178Z,69.62
2023-05-01T04:11:30.468Z,68.96
2023-05-01T04:13:56.743Z,69.84
2023-05-01T04:16:23.098Z,69.41
2023-05-01T04:18:49.350Z,67.53
2023-05-01T04:21:15.604Z,66.10
2023-05-01T04:23:41.858Z,64.71
2023-05-01T04:26:08.111Z,63.21
2023-05-01T04:28:34.393Z,65.06
2023-05-01T04:31:00.712Z,63.45
2023-05-01T04:33:27.060Z,60.15
2023-05-01T04:35:53.299Z,63.00
2023-05-01T04:38:19.573Z,63.34
2023-05-01T04:40:45.892Z,63.70
2023-05-01T04:43:12.167Z,66.62
2023-05-01T04:45:38.404Z,65.92
2023-05-01T04:48:04.690Z,63.55
2023-05-01T04:50:30.987Z,62.70
2023-05-01T04:52:57.256Z,63.00
2023-05-01T04:55:23.490Z,63.10
2023-05-01T04:57:49.742Z,63.39
2023-05-01T05:00:16.006Z,62.74
2023-05-01T05:02:42.337Z,61.94
2023-05-01T05:05:08.695Z,63.63
2023-05-01T05:07:34.963Z,64.64
2023-05-01T05:10:01.261Z,64.09
2023-05-01T05:12:27.562Z,65.07
2023-05-01T05:14:53.810Z,63.66
2023-05-01T05:17:20.033Z,63.43
2023-05-01T05:19:46.265Z,65.07
2023-05-01T05:22:12.569Z,67.13
2023-05-01T05:24:38.879Z,67.00
2023-05-01T05:27:05.196Z,65.62
2023-05-01T05:29:31.424Z,64.33
2023-05-01T05:31:57.728Z,63.31
2023-05-01T05:34:24.037Z,63.27
2023-05-01T05:36:50.313Z,63.09
2023-05-01T05:39:16.545Z,62.23
2023-05-01T05:41:42.777Z,65.04
2023-05-01T05:44:09.019Z,66.97
2023-05-01T05:46:35.419Z,66.50
2023-05-01T05:49:01.777Z,64.77
2023-05-01T05:51:28.119Z,63.12
2023-05-01T05:53:54.395Z,63.38
2023-05-01T05:56:20.650Z,63.76
2023-05-01T05:58:46.956Z,65.41
2023-05-01T06:01:13.190Z,64.67
2023-05-01T06:03:39.749Z,64.91
2023-05-01T06:06:06.450Z,65.15
2023-05-01T06:08:32.844Z,65.45
2023-05-01T06:10:59.127Z,66.35
2023-05-01T06:13:25.432Z,68.19
2023-05-01T06:15:51.745Z,69.70
2023-05-01T06:18:18.090Z,69.45
2023-05-01T06:20:44.417Z,67.34
2023-05-01T06:23:10.633Z,67.28
2023-05-01T06:25:36.879Z,70.35
2023-05-01T06:28:03.129Z,68.86
2023-05-01T06:30:29.482Z,67.37
2023-05-01T06:32:55.727Z,66.94
2023-05-01T06:35:22.014Z,67.02
2023-05-01T06:37:48.254Z,68.38
2023-05-01T06:40:14.510Z,68.42
2023-05-01T06:42:40.753Z,69.71
2023-05-01T06:45:06.988Z,69.69
2023-05-01T06:47:33.333Z,69.59
2023-05-01T06:49:59.614Z,68.27
2023-05-01T06:52:27.162Z,66.78
2023-05-01T06:54:53.467Z,66.89
2023-05-01T06:57:19.727Z,66.31
2023-05-01T06:59:45.961Z,66.57
2023-05-01T07:02:12.225Z,67.47
2023-05-01T07:04:38.544Z,65.36
2023-05-01T07:07:04.855Z,66.76
2023-05-01T07:09:31.068Z,65.55
2023-05-01T07:11:57.321Z,62.58
2023-05-01T07:14:23.592Z,62.85
2023-05-01T07:16:49.944Z,61.14
2023-05-01T07:19:16.250Z,60.66
2023-05-01T07:21:42.470Z,59.88
2023-05-01T07:24:08.744Z,57.68
2023-05-01T07:26:34.990Z,59.15
2023-05-01T07:29:01.220Z,57.36
2023-05-01T07:31:27.476Z,61.30
2023-05-01T07:33:54.324Z,63.30
2023-05-01T07:36:20.650Z,63.37
2023-05-01T07:38:46.950Z,62.97
2023-05-01T07:41:14.592Z,65.62
2023-05-01T07:43:40.828Z,66.71
2023-05-01T07:46:07.209Z,66.98
2023-05-01T07:48:33.529Z,65.92
2023-05-01T07:50:59.780Z,64.29
2023-05-01T07:53:26.099Z,63.19
2023-05-01T07:55:52.498Z,64.07
2023-05-01T07:58:18.752Z,62.61
2023-05-01T08:00:45.043Z,62.43
2023-05-01T08:03:11.531Z,64.55
2023-05-01T08:05:37.915Z,63.68
2023-05-01T08:08:04.180Z,65.69
2023-05-01T08:10:30.414Z,67.13
2023-05-01T08:12:56.631Z,69.52
2023-05-01T08:15:22.869Z,68.76
2023-05-01T08:17:49.137Z,69.74
2023-05-01T08:20:15.405Z,68.43
2023-05-01T08:22:46.764Z,67.75
2023-05-01T08:25:13.081Z,66.66
2023-05-01T08:27:39.404Z,66.91
2023-05-01T08:30:05.639Z,67.63
2023-05-01T08:32:31.937Z,68.34
2023-05-01T08:34:58.180Z,66.89
2023-05-01T08:37:24.477Z,69.04
2023-05-01T08:39:50.768Z,68.49
2023-05-01T08:42:17.085Z,68.28
2023-05-01T08:44:43.325Z,67.66
2023-05-01T08:47:09.657Z,65.58
2023-05-01T08:49:36.025Z,64.67
2023-05-01T08:52:02.272Z,63.94
2023-05-01T08:54:28.542Z,62.96
2023-05-01T08:56:54.827Z,64.74
2023-05-01T08:59:21.082Z,62.13
2023-05-01T09:01:47.380Z,63.32
2023-05-01T09:04:13.702Z,64.27
2023-05-01T09:06:39.977Z,64.11
2023-05-01T09:09:06.280Z,61.62
2023-05-01T09:11:32.536Z,60.32
2023-05-01T09:13:59.567Z,62.07
2023-05-01T09:16:25.855Z,60.72
2023-05-01T09:18:52.099Z,62.33
2023-05-01T09:21:18.355Z,62.39
2023-05-01T09:23:44.595Z,62.79
2023-05-01T09:26:10.834Z,59.64
2023-05-01T09:28:37.079Z,62.10
2023-05-01T09:31:03.324Z,62.95
2023-05-01T09:33:29.587Z,59.75
2023-05-01T09:35:55.843Z,61.57
2023-05-01T09:38:22.121Z,61.90
2023-05-01T09:40:48.354Z,60.55
2023-05-01T09:43:14.586Z,62.10
2023-05-01T09:45:40.890Z,63.70
2023-05-01T09:48:07.226Z,64.38
2023-05-01T09:50:33.616Z,65.48
2023-05-01T09:52:59.856Z,67.36
2023-05-01T09:55:26.138Z,68.37
2023-05-01T09:57:52.389Z,68.72
2023-05-01T10:00:18.686Z,65.89
2023-05-01T10:02:45.206Z,67.05
2023-05-01T10:05:11.551Z,68.13
2023-05-01T10:07:37.790Z,68.26
2023-05-01T10:10:04.204Z,70.43
2023-05-01T10:12:30.662Z,68.85
2023-05-01T10:14:56.892Z,67.71
2023-05-01T10:17:23.158Z,68.22
2023-05-01T10:19:49.452Z,68.81
2023-05-01T10:22:15.688Z,68.53
2023-05-01T10:24:41.907Z,69.29
2023-05-01T10:27:08.158Z,68.80
2023-05-01T10:29:34.434Z,67.97
2023-05-01T10:32:00.988Z,69.16
2023-05-01T10:34:28.497Z,69.20
2023-05-01T10:36:54.928Z,69.54
2023-05-01T10:39:21.144Z,69.55
2023-05-01T10:41:47.356Z,68.38
2023-05-01T10:44:13.646Z,69.56
2023-05-01T10:46:40.007Z,70.45
2023-05-01T10:49:06.283Z,71.66
2023-05-01T10:51:32.534Z,71.32
2023-05-01T10:53:58.758Z,67.79
2023-05-01T10:56:25.004Z,68.71
2023-05-01T10:58:51.233Z,66.13
2023-05-01T11:01:17.500Z,67.14
2023-05-01T11:03:43.736Z,68.21
2023-05-01T11:06:10.132Z,69.50
2023-05-01T11:08:36.524Z,71.54
2023-05-01T11:11:02.774Z,71.64
2023-05-01T11:13:29.013Z,74.19
2023-05-01T11:15:55.351Z,74.03
2023-05-01T11:18:21.664Z,75.32
2023-05-01T11:20:47.925Z,73.17
2023-05-01T11:23:14.177Z,72.81
2023-05-01T11:25:42.316Z,72.64
2023-05-01T11:28:08.563Z,72.01
2023-05-01T11:30:34.792Z,72.53
2023-05-01T11:33:01.086Z,73.48
2023-05-01T11:35:27.366Z,72.64
2023-05-01T11:37:53.635Z,70.23
2023-05-01T11:40:19.894Z,70.35
2023-05-01T11:42:46.201Z,68.95
2023-05-01T11:45:12.453Z,68.61
2023-05-01T11:47:38.738Z,67.51
2023-05-01T11:50:05.012Z,69.14
2023-05-01T11:52:31.310Z,68.56
2023-05-01T11:54:57.593Z,68.50
2023-05-01T11:57:23.848Z,70.04
2023-05-01T11:59:50.123Z,72.03
2023-05-01T12:02:16.539Z,68.70
2023-05-01T12:04:42.869Z,65.53
2023-05-01T12:07:09.147Z,67.69
2023-05-01T12:09:35.385Z,65.20
2023-05-01T12:12:01.630Z,65.99
2023-05-01T12:14:29.239Z,63.60
2023-05-01T12:16:55.530Z,66.00
2023-05-01T12:19:22.464Z,69.10
2023-05-01T12:21:50.093Z,68.54
2023-05-01T12:24:16.452Z,68.90
2023-05-01T12:26:42.698Z,68.44
2023-05-01T12:29:08.911Z,67.24
2023-05-01T12:31:35.257Z,68.86
2023-05-01T12:34:01.565Z,67.33
2023-05-01T12:36:27.836Z,67.97
2023-05-01T12:38:54.075Z,66.85
2023-05-01T12:41:20.330Z,69.53
2023-05-01T12:43:46.617Z,71.14
2023-05-01T12:46:12.923Z,69.30
2023-05-01T12:48:39.232Z,70.12
2023-05-01T12:51:05.477Z,71.54
2023-05-01T12:53:31.729Z,68.03
2023-05-01T12:55:57.986Z,67.83
2023-05-01T12:58:24.288Z,67.48
2023-05-01T13:00:50.584Z,65.58
2023-05-01T13:03:17.059Z,67.31
2023-05-01T13:05:43.441Z,67.06
2023-05-01T13:08:09.695Z,64.58
2023-05-01T13:10:35.920Z,62.84
2023-05-01T13:13:02.194Z,63.12
2023-05-01T13:15:28.528Z,60.71
2023-05-01T13:17:54.865Z,61.21
2023-05-01T13:20:21.152Z,63.03
2023-05-01T13:22:47.407Z,63.73
2023-05-01T13:25:13.661Z,64.01
2023-05-01T13:27:39.912Z,64.72
2023-05-01T13:30:06.132Z,63.94
2023-05-01T13:32:32.447Z,63.31
2023-05-01T13:34:58.731Z,63.99
2023-05-01T13:37:24.952Z,64.47
2023-05-01T13:39:51.184Z,65.15
2023-05-01T13:42:17.424Z,62.15
2023-05-01T13:44:43.679Z,59.26
2023-05-01T13:47:09.926Z,63.89
2023-05-01T13:49:36.184Z,62.75
2023-05-01T13:52:02.440Z,63.53
2023-05-01T13:54:28.687Z,67.87
2023-05-01T13:56:54.963Z,66.96
2023-05-01T13:59:21.237Z,66.32
2023-05-01T14:01:47.619Z,68.32
2023-05-01T14:04:13.958Z,66.29
2023-05-01T14:06:40.227Z,67.34
2023-05-01T14:09:06.500Z,69.50
2023-05-01T14:11:32.732Z,69.85
2023-05-01T14:13:58.972Z,68.27
2023-05-01T14:16:25.355Z,65.78
2023-05-01T14:18:51.683Z,65.23
2023-05-01T14:21:17.990Z,63.87
2023-05-01T14:23:44.246Z,67.39
2023-05-01T14:26:10.529Z,67.86
2023-05-01T14:28:36.816Z,68.76
2023-05-01T14:31:03.097Z,68.78
2023-05-01T14:33:29.410Z,68.35
2023-05-01T14:35:55.689Z,69.95
2023-05-01T14:38:21.931Z,69.75
2023-05-01T14:40:48.168Z,70.02
2023-05-01T14:43:14.390Z,67.58
2023-05-01T14:45:40.605Z,68.96
2023-05-01T14:48:06.944Z,66.61
2023-05-01T14:50:33.223Z,67.19
2023-05-01T14:52:59.472Z,66.89
2023-05-01T14:55:25.726Z,68.10
2023-05-01T14:57:51.994Z,67.04
2023-05-01T15:00:18.284Z,63.78
2023-05-01T15:02:44.639Z,66.32
2023-05-01T15:05:11.023Z,64.45
2023-05-01T15:07:37.316Z,63.65
2023-05-01T15:10:03.578Z,62.34
2023-05-01T15:12:29.847Z,62.63
2023-05-01T15:14:56.271Z,64.32
2023-05-01T15:17:22.672Z,63.20
2023-05-01T15:19:48.989Z,63.94
2023-05-01T15:22:15.293Z,64.17
2023-05-01T15:24:41.516Z,63.11
2023-05-01T15:27:07.750Z,61.83
2023-05-01T15:29:33.981Z,64.08
2023-05-01T15:32:11.240Z,62.85
2023-05-01T15:34:38.066Z,61.34
2023-05-01T15:37:04.360Z,63.76
2023-05-01T15:39:30.592Z,66.49
2023-05-01T15:41:56.831Z,66.10
2023-05-01T15:44:23.098Z,66.25
2023-05-01T15:46:49.510Z,66.13
2023-05-01T15:49:15.836Z,67.75
2023-05-01T15:51:42.106Z,66.66
2023-05-01T15:54:08.433Z,65.76
2023-05-01T15:56:34.650Z,65.95
2023-05-01T15:59:00.908Z,66.33
2023-05-01T16:01:27.243Z,66.55
2023-05-01T16:03:53.618Z,64.05
2023-05-01T16:06:19.975Z,63.93
2023-05-01T16:08:46.257Z,64.67
2023-05-01T16:11:12.551Z,63.70
2023-05-01T16:13:38.856Z,64.21
2023-05-01T16:16:05.162Z,63.99
2023-05-01T16:18:31.453Z,64.45
2023-05-01T16:20:57.667Z,64.03
2023-05-01T16:23:23.887Z,64.80
2023-05-01T16:25:50.124Z,65.01
2023-05-01T16:28:16.410Z,65.76
2023-05-01T16:30:42.700Z,65.80
2023-05-01T16:33:08.983Z,64.39
2023-05-01T16:35:35.295Z,66.09
2023-05-01T16:38:01.559Z,65.84
2023-05-01T16:40:27.793Z,66.05
2023-05-01T16:42:54.113Z,66.86
2023-05-01T16:45:20.363Z,66.30
2023-05-01T16:47:46.691Z,66.27
2023-05-01T16:50:12.989Z,64.52
2023-05-01T16:52:39.226Z,64.51
2023-05-01T16:55:05.477Z,63.63
2023-05-01T16:57:31.722Z,64.66
2023-05-01T16:59:58.210Z,65.11
2023-05-01T17:02:24.761Z,64.60
2023-05-01T17:04:51.136Z,64.07
2023-05-01T17:07:17.436Z,65.01
2023-05-01T17:09:43.706Z,64.73
2023-05-01T17:12:10.021Z,66.29
2023-05-01T17:14:36.270Z,66.47
2023-05-01T17:17:02.531Z,66.23
2023-05-01T17:19:28.787Z,64.16
2023-05-01T17:21:55.056Z,64.35
2023-05-01T17:24:21.610Z,63.75
2023-05-01T17:26:47.881Z,63.79
2023-05-01T17:29:14.114Z,63.11
2023-05-01T17:31:40.437Z,63.27
2023-05-01T17:34:06.745Z,63.83
2023-05-01T17:36:32.967Z,64.62
2023-05-01T17:38:59.199Z,64.62
2023-05-01T17:41:25.432Z,65.05
2023-05-01T17:43:51.698Z,64.94
2023-05-01T17:46:17.996Z,64.24
2023-05-01T17:48:44.286Z,65.69
2023-05-01T17:51:10.521Z,66.46
2023-05-01T17:53:36.772Z,66.79
2023-05-01T17:56:03.000Z,65.84
2023-05-01T17:58:29.275Z,64.76
2023-05-01T18:00:58.272Z,63.58
2023-05-01T18:03:25.205Z,62.92
2023-05-01T18:05:51.510Z,64.05
2023-05-01T18:08:17.759Z,62.89
2023-05-01T18:10:44.056Z,63.19
2023-05-01T18:13:10.361Z,62.36
2023-05-01T18:15:36.638Z,63.82
2023-05-01T18:18:02.958Z,65.05
2023-05-01T18:20:29.261Z,65.12
2023-05-01T18:22:55.490Z,66.76
2023-05-01T18:25:21.738Z,67.36
2023-05-01T18:27:47.972Z,66.44
2023-05-01T18:30:14.204Z,66.16
2023-05-01T18:32:48.336Z,66.09
2023-05-01T18:35:15.438Z,67.83
2023-05-01T18:37:41.755Z,67.53
2023-05-01T18:40:08.009Z,68.66
2023-05-01T18:42:34.289Z,66.95
2023-05-01T18:45:00.607Z,66.15
2023-05-01T18:47:26.866Z,68.16
2023-05-01T18:49:53.136Z,66.99
2023-05-01T18:52:19.420Z,66.07
2023-05-01T18:54:45.679Z,64.05
2023-05-01T18:57:11.919Z,63.54
2023-05-01T18:59:38.178Z,63.26
2023-05-01T19:02:07.296Z,62.24
2023-05-01T19:04:36.199Z,64.51
2023-05-01T19:07:09.249Z,64.88
2023-05-01T19:09:35.521Z,64.50
2023-05-01T19:12:01.759Z,65.29
2023-05-01T19:14:28.030Z,67.37
2023-05-01T19:16:54.294Z,67.15
2023-05-01T19:19:20.589Z,66.49
2023-05-01T19:21:46.845Z,65.34
2023-05-01T19:24:13.132Z,66.46
2023-05-01T19:26:39.433Z,63.26
2023-05-01T19:29:05.780Z,66.02
2023-05-01T19:31:32.068Z,66.20
2023-05-01T19:33:58.392Z,64.75
2023-05-01T19:36:24.653Z,67.23
2023-05-01T19:38:50.904Z,66.42
2023-05-01T19:41:17.138Z,64.88
2023-05-01T19:43:43.419Z,63.29
2023-05-01T19:46:09.860Z,61.01
2023-05-01T19:48:36.152Z,61.24
2023-05-01T19:51:02.474Z,60.92
2023-05-01T19:53:28.767Z,61.34
2023-05-01T19:55:55.074Z,62.90
2023-05-01T19:58:21.303Z,63.49
2023-05-01T20:00:47.571Z,63.07
2023-05-01T20:03:14.022Z,62.93
2023-05-01T20:05:40.411Z,62.24
2023-05-01T20:08:06.645Z,62.49
2023-05-01T20:10:32.915Z,62.46
2023-05-01T20:12:59.221Z,62.95
2023-05-01T20:15:25.456Z,63.71
2023-05-01T20:17:51.750Z,64.80
2023-05-01T20:20:18.036Z,67.77
2023-05-01T20:22:44.347Z,67.52
2023-05-01T20:25:10.666Z,65.90
2023-05-01T20:27:36.902Z,64.56
2023-05-01T20:30:03.152Z,67.23
2023-05-01T20:32:29.475Z,68.47
2023-05-01T20:34:55.830Z,69.03
2023-05-01T20:37:22.062Z,67.07
2023-05-01T20:39:48.302Z,68.05
2023-05-01T20:42:14.550Z,69.84
2023-05-01T20:44:40.780Z,69.73
2023-05-01T20:47:07.106Z,70.43
2023-05-01T20:49:33.372Z,70.62
2023-05-01T20:51:59.585Z,68.51
2023-05-01T20:54:25.840Z,67.20
2023-05-01T20:56:52.095Z,65.67
2023-05-01T20:59:18.375Z,67.02
2023-05-01T21:01:44.685Z,66.27
2023-05-01T21:04:11.059Z,67.00
2023-05-01T21:06:37.412Z,67.26
2023-05-01T21:09:03.672Z,66.03
2023-05-01T21:11:29.905Z,65.94
2023-05-01T21:13:56.190Z,65.12
2023-05-01T21:16:22.516Z,65.29
2023-05-01T21:18:48.823Z,64.76
2023-05-01T21:21:15.118Z,65.00
2023-05-01T21:23:41.346Z,64.82
2023-05-01T21:26:07.609Z,65.91
2023-05-01T21:28:33.830Z,65.76
2023-05-01T21:31:00.056Z,65.67
2023-05-01T21:33:26.282Z,65.26
2023-05-01T21:35:52.896Z,66.54
2023-05-01T21:38:19.191Z,66.12
2023-05-01T21:40:45.502Z,67.82
2023-05-01T21:43:11.726Z,67.90
2023-05-01T21:45:37.948Z,68.42
2023-05-01T21:48:04.213Z,68.35
2023-05-01T21:50:30.503Z,66.94
2023-05-01T21:52:56.819Z,66.12
2023-05-01T21:55:23.069Z,65.40
2023-05-01T21:57:49.300Z,66.41
2023-05-01T22:00:15.546Z,66.16
2023-05-01T22:02:41.958Z,65.44
2023-05-01T22:05:08.373Z,69.28
2023-05-01T22:07:34.689Z,68.56
2023-05-01T22:10:01.182Z,69.27
2023-05-01T22:12:27.644Z,68.37
2023-05-01T22:14:53.869Z,69.38
2023-05-01T22:17:20.115Z,68.20
2023-05-01T22:19:46.394Z,68.13
2023-05-01T22:22:12.701Z,67.79
2023-05-01T22:24:38.926Z,67.59
2023-05-01T22:27:05.166Z,68.45
2023-05-01T22:29:31.407Z,71.54
2023-05-01T22:31:57.701Z,73.59
2023-05-01T22:34:23.986Z,73.42
2023-05-01T22:36:50.228Z,70.55
2023-05-01T22:39:16.464Z,68.77
2023-05-01T22:41:42.717Z,68.00
2023-05-01T22:44:08.990Z,67.21
2023-05-01T22:46:35.348Z,67.15
2023-05-01T22:49:01.662Z,66.93
2023-05-01T22:51:27.896Z,67.33
2023-05-01T22:53:54.124Z,67.99
2023-05-01T22:56:20.374Z,67.75
2023-05-01T22:58:46.631Z,66.48
2023-05-01T23:01:12.940Z,69.37
2023-05-01T23:03:39.294Z,70.58
2023-05-01T23:06:05.670Z,67.70
2023-05-01T23:08:31.947Z,67.86
2023-05-01T23:10:58.182Z,68.41
2023-05-01T23:13:24.405Z,67.70
2023-05-01T23:15:50.690Z,67.43
2023-05-01T23:18:16.921Z,69.18
2023-05-01T23:20:43.180Z,70.83
2023-05-01T23:23:09.444Z,72.27
2023-05-01T23:25:35.687Z,70.80
2023-05-01T23:28:01.932Z,72.23
2023-05-01T23:30:28.164Z,72.06
2023-05-01T23:32:54.419Z,72.15
2023-05-01T23:35:20.760Z,71.05
2023-05-01T23:37:47.005Z,69.71
2023-05-01T23:40:13.240Z,69.16
2023-05-01T23:42:39.502Z,67.78
2023-05-01T23:45:05.799Z,67.97
2023-05-01T23:47:32.219Z,69.89
2023-05-01T23:49:58.586Z,70.99
2023-05-01T23:52:24.965Z,71.62
2023-05-01T23:54:51.213Z,73.57
2023-05-01T23:57:17.449Z,72.81
2023-05-01T23:59:43.720Z,72.70
